createdAt,value
2022-12-03T00:00:13.509Z,66.54
2022-12-03T00:02:41.191Z,66.56
2022-12-03T00:05:08.543Z,66.31
2022-12-03T00:07:35.398Z,66.30
2022-12-03T00:10:02.344Z,66.00
2022-12-03T00:12:29.070Z,65.91
2022-12-03T00:14:56.595Z,66.06
2022-12-03T00:17:23.371Z,65.97
2022-12-03T00:19:50.073Z,65.91
2022-12-03T00:22:16.761Z,65.70
2022-12-03T00:24:43.435Z,65.81
2022-12-03T00:27:10.240Z,65.73
2022-12-03T00:29:38.534Z,65.69
2022-12-03T00:32:32.658Z,65.41
2022-12-03T00:39:12.150Z,65.26
2022-12-03T00:45:57.388Z,66.05
2022-12-03T00:48:24.287Z,66.15
2022-12-03T00:50:51.233Z,66.22
2022-12-03T00:53:18.256Z,66.08
2022-12-03T00:55:45.182Z,66.31
2022-12-03T00:58:11.871Z,66.26
2022-12-03T01:00:38.616Z,66.34
2022-12-03T01:03:05.905Z,66.41
2022-12-03T01:05:32.512Z,66.31
2022-12-03T01:07:59.217Z,66.15
2022-12-03T01:10:25.986Z,66.18
2022-12-03T01:12:52.794Z,66.29
2022-12-03T01:15:19.589Z,66.46
2022-12-03T01:17:46.250Z,66.51
2022-12-03T01:20:13.671Z,66.17
2022-12-03T01:22:40.302Z,66.00
2022-12-03T01:25:07.518Z,66.09
2022-12-03T01:27:34.201Z,66.25
2022-12-03T01:30:00.831Z,66.22
2022-12-03T01:32:27.470Z,66.27
2022-12-03T01:34:56.101Z,66.21
2022-12-03T01:37:25.808Z,66.41
2022-12-03T01:39:52.974Z,66.61
2022-12-03T01:42:25.960Z,66.41
2022-12-03T01:44:56.331Z,66.25
2022-12-03T01:47:28.825Z,66.18
2022-12-03T01:50:08.679Z,66.38
2022-12-03T01:52:38.623Z,66.37
2022-12-03T01:55:11.861Z,66.09
2022-12-03T01:57:46.032Z,66.10
2022-12-03T02:00:16.197Z,66.04
2022-12-03T02:02:42.891Z,66.02
2022-12-03T02:05:18.174Z,66.01
2022-12-03T02:07:45.230Z,66.08
2022-12-03T02:10:14.037Z,66.04
2022-12-03T02:13:03.265Z,65.86
2022-12-03T02:15:29.913Z,65.65
2022-12-03T02:17:58.150Z,65.51
2022-12-03T02:20:25.438Z,65.55
2022-12-03T02:22:55.044Z,65.47
2022-12-03T02:25:26.901Z,65.47
2022-12-03T02:27:54.804Z,65.41
2022-12-03T02:30:24.902Z,65.15
2022-12-03T02:32:53.703Z,65.17
2022-12-03T02:35:23.503Z,65.28
2022-12-03T02:38:06.653Z,65.12
2022-12-03T02:40:34.081Z,65.24
2022-12-03T02:43:03.758Z,65.22
2022-12-03T02:45:32.383Z,65.39
2022-12-03T02:48:25.763Z,65.30
2022-12-03T02:50:57.868Z,65.25
2022-12-03T02:53:52.016Z,65.36
2022-12-03T02:56:22.926Z,65.26
2022-12-03T02:58:53.224Z,65.39
2022-12-03T03:01:20.230Z,65.42
2022-12-03T03:03:49.605Z,65.29
2022-12-03T03:06:18.441Z,65.18
2022-12-03T03:08:45.418Z,65.25
2022-12-03T03:11:12.403Z,65.37
2022-12-03T03:13:39.658Z,65.50
2022-12-03T03:16:07.702Z,65.64
2022-12-03T03:18:35.594Z,65.31
2022-12-03T03:21:03.292Z,65.35
2022-12-03T03:23:29.954Z,65.37
2022-12-03T03:25:58.599Z,65.35
2022-12-03T03:28:27.064Z,65.56
2022-12-03T03:30:54.828Z,65.88
2022-12-03T03:33:22.214Z,65.74
2022-12-03T03:35:49.923Z,65.64
2022-12-03T03:38:19.828Z,65.43
2022-12-03T03:40:48.606Z,65.27
2022-12-03T03:43:15.538Z,65.23
2022-12-03T03:45:43.164Z,65.26
2022-12-03T03:48:11.207Z,65.29
2022-12-03T03:50:38.142Z,65.28
2022-12-03T03:53:05.740Z,65.19
2022-12-03T03:55:33.741Z,65.22
2022-12-03T03:58:00.355Z,65.41
2022-12-03T04:00:27.207Z,65.23
2022-12-03T04:02:54.452Z,65.36
2022-12-03T04:05:23.128Z,65.34
2022-12-03T04:07:51.031Z,65.44
2022-12-03T04:10:36.415Z,65.40
2022-12-03T04:13:04.032Z,65.33
2022-12-03T04:15:30.780Z,65.34
2022-12-03T04:18:16.180Z,65.36
2022-12-03T04:20:43.053Z,65.26
2022-12-03T04:23:09.945Z,65.30
2022-12-03T04:25:55.552Z,65.39
2022-12-03T04:28:40.829Z,65.13
2022-12-03T04:31:26.121Z,65.21
2022-12-03T04:34:11.562Z,65.23
2022-12-03T04:36:38.646Z,65.09
2022-12-03T04:39:05.907Z,64.99
2022-12-03T04:41:33.778Z,64.96
2022-12-03T04:44:19.147Z,65.07
2022-12-03T04:46:46.042Z,65.00
2022-12-03T04:49:12.816Z,64.87
2022-12-03T04:51:39.549Z,64.79
2022-12-03T04:54:06.309Z,64.74
2022-12-03T04:56:33.038Z,64.70
2022-12-03T04:58:59.749Z,64.72
2022-12-03T05:01:26.514Z,64.84
2022-12-03T05:03:53.212Z,64.96
2022-12-03T05:06:19.983Z,64.89
2022-12-03T05:08:46.669Z,64.80
2022-12-03T05:11:13.333Z,64.88
2022-12-03T05:13:41.308Z,64.92
2022-12-03T05:16:09.649Z,65.02
2022-12-03T05:18:36.581Z,64.61
2022-12-03T05:21:03.282Z,64.73
2022-12-03T05:23:30.000Z,65.12
2022-12-03T05:25:56.650Z,65.36
2022-12-03T05:28:24.408Z,65.26
2022-12-03T05:30:52.389Z,65.22
2022-12-03T05:33:19.262Z,65.01
2022-12-03T05:35:46.248Z,64.87
2022-12-03T05:38:12.952Z,65.33
2022-12-03T05:40:40.050Z,65.42
2022-12-03T05:43:06.735Z,65.37
2022-12-03T05:45:38.503Z,65.11
2022-12-03T05:48:09.067Z,65.18
2022-12-03T05:50:37.611Z,65.24
2022-12-03T05:53:17.305Z,65.14
2022-12-03T05:55:44.050Z,65.16
2022-12-03T05:58:11.714Z,65.18
2022-12-03T06:00:42.804Z,65.18
2022-12-03T06:03:10.434Z,65.11
2022-12-03T06:05:37.366Z,65.10
2022-12-03T06:08:04.187Z,65.03
2022-12-03T06:10:31.006Z,64.96
2022-12-03T06:12:57.841Z,65.11
2022-12-03T06:15:24.622Z,65.16
2022-12-03T06:17:51.427Z,65.20
2022-12-03T06:20:20.815Z,65.20
2022-12-03T06:22:48.167Z,65.12
2022-12-03T06:25:15.894Z,65.06
2022-12-03T06:27:43.088Z,64.95
2022-12-03T06:30:12.546Z,64.96
2022-12-03T06:32:39.326Z,64.98
2022-12-03T06:35:06.276Z,65.08
2022-12-03T06:37:33.139Z,65.10
2022-12-03T06:39:59.916Z,65.00
2022-12-03T06:42:26.671Z,64.97
2022-12-03T06:44:53.951Z,64.98
2022-12-03T06:47:20.959Z,64.77
2022-12-03T06:49:47.666Z,64.76
2022-12-03T06:52:14.407Z,64.73
2022-12-03T06:54:41.130Z,64.66
2022-12-03T06:57:08.049Z,64.71
2022-12-03T06:59:37.561Z,64.70
2022-12-03T07:02:04.965Z,64.96
2022-12-03T07:04:31.848Z,65.10
2022-12-03T07:06:58.633Z,65.03
2022-12-03T07:09:25.826Z,64.95
2022-12-03T07:11:52.782Z,64.92
2022-12-03T07:14:19.465Z,64.89
2022-12-03T07:16:46.246Z,65.07
2022-12-03T07:19:13.255Z,64.99
2022-12-03T07:25:14.143Z,64.97
2022-12-03T07:27:42.992Z,65.17
2022-12-03T07:30:13.625Z,65.30
2022-12-03T07:32:40.373Z,65.31
2022-12-03T07:35:07.161Z,65.46
2022-12-03T07:37:34.458Z,65.52
2022-12-03T07:40:00.493Z,65.72
2022-12-03T07:42:26.546Z,65.73
2022-12-03T07:44:52.839Z,65.78
2022-12-03T07:47:19.490Z,65.85
2022-12-03T07:49:45.540Z,65.93
2022-12-03T07:52:11.739Z,65.87
2022-12-03T07:54:37.753Z,65.76
2022-12-03T07:57:03.825Z,65.64
2022-12-03T07:59:29.808Z,65.65
2022-12-03T08:01:55.931Z,65.58
2022-12-03T08:04:21.988Z,65.66
2022-12-03T08:06:48.517Z,65.63
2022-12-03T08:09:16.413Z,65.65
2022-12-03T08:11:44.836Z,65.72
2022-12-03T08:14:13.923Z,65.73
2022-12-03T08:16:47.422Z,65.69
2022-12-03T08:19:16.671Z,65.69
2022-12-03T08:21:43.288Z,65.83
2022-12-03T08:24:14.681Z,65.91
2022-12-03T08:26:43.642Z,66.19
2022-12-03T08:29:12.128Z,66.21
2022-12-03T08:31:38.795Z,66.31
2022-12-03T08:34:20.853Z,66.45
2022-12-03T08:36:50.090Z,66.57
2022-12-03T08:39:16.008Z,66.67
2022-12-03T08:42:00.614Z,66.62
2022-12-03T08:44:29.399Z,66.71
2022-12-03T08:47:15.703Z,66.58
2022-12-03T08:49:44.100Z,66.66
2022-12-03T08:52:18.879Z,66.65
2022-12-03T08:54:52.463Z,66.59
2022-12-03T08:57:21.500Z,66.60
2022-12-03T08:59:47.625Z,66.78
2022-12-03T09:02:21.875Z,66.92
2022-12-03T09:04:47.932Z,67.27
2022-12-03T09:07:14.196Z,67.41
2022-12-03T09:09:40.265Z,67.49
2022-12-03T09:12:06.546Z,67.36
2022-12-03T09:14:32.564Z,67.31
2022-12-03T09:16:58.769Z,67.32
2022-12-03T09:19:26.537Z,67.26
2022-12-03T09:21:53.652Z,67.11
2022-12-03T09:24:20.272Z,67.32
2022-12-03T09:26:46.352Z,67.59
2022-12-03T09:29:12.975Z,67.43
2022-12-03T09:31:39.618Z,67.35
2022-12-03T09:34:06.329Z,67.45
2022-12-03T09:36:32.902Z,67.61
2022-12-03T09:38:59.025Z,67.70
2022-12-03T09:41:25.841Z,67.76
2022-12-03T09:44:15.580Z,67.78
2022-12-03T09:46:41.439Z,67.82
2022-12-03T09:49:15.867Z,67.88
2022-12-03T09:51:43.714Z,68.03
2022-12-03T09:54:27.348Z,67.86
2022-12-03T09:56:55.734Z,67.68
2022-12-03T09:59:25.659Z,67.66
2022-12-03T10:01:52.984Z,67.72
2022-12-03T10:04:19.480Z,67.77
2022-12-03T10:06:46.493Z,67.70
2022-12-03T10:09:16.828Z,67.84
2022-12-03T10:11:42.846Z,67.80
2022-12-03T10:14:12.635Z,67.89
2022-12-03T10:16:40.499Z,67.70
2022-12-03T10:19:11.039Z,67.65
2022-12-03T10:21:38.393Z,67.69
2022-12-03T10:24:28.296Z,67.81
2022-12-03T10:26:57.099Z,67.59
2022-12-03T10:29:31.585Z,67.54
2022-12-03T10:32:08.774Z,67.43
2022-12-03T10:34:36.975Z,67.41
2022-12-03T10:37:22.304Z,66.97
2022-12-03T10:39:56.593Z,66.81
2022-12-03T10:42:24.508Z,66.86
2022-12-03T10:45:07.868Z,67.02
2022-12-03T10:47:34.480Z,67.07
2022-12-03T10:50:03.874Z,67.12
2022-12-03T10:52:30.267Z,67.00
2022-12-03T10:54:56.471Z,67.09
2022-12-03T10:57:22.965Z,67.31
2022-12-03T10:59:49.342Z,67.37
2022-12-03T11:02:22.072Z,67.35
2022-12-03T11:04:49.015Z,67.65
2022-12-03T11:07:19.711Z,67.40
2022-12-03T11:09:51.358Z,67.32
2022-12-03T11:12:23.580Z,67.50
2022-12-03T11:14:56.071Z,67.56
2022-12-03T11:17:52.487Z,67.65
2022-12-03T11:20:24.233Z,67.65
2022-12-03T11:22:57.597Z,67.49
2022-12-03T11:25:26.673Z,67.40
2022-12-03T11:28:11.772Z,67.44
2022-12-03T11:31:00.957Z,67.53
2022-12-03T11:33:33.179Z,67.64
2022-12-03T11:36:02.129Z,67.74
2022-12-03T11:38:36.973Z,67.77
2022-12-03T11:41:10.127Z,67.82
2022-12-03T11:43:57.089Z,68.02
2022-12-03T11:46:42.898Z,68.07
2022-12-03T11:49:37.368Z,68.14
2022-12-03T11:52:19.348Z,68.10
2022-12-03T11:54:49.800Z,68.09
2022-12-03T11:57:25.954Z,68.09
2022-12-03T12:00:02.901Z,68.06
2022-12-03T12:02:38.192Z,68.00
2022-12-03T12:05:16.187Z,67.96
2022-12-03T12:07:42.367Z,68.16
2022-12-03T12:10:08.751Z,68.25
2022-12-03T12:12:54.752Z,68.24
2022-12-03T12:15:39.669Z,68.12
2022-12-03T12:18:33.472Z,68.30
2022-12-03T12:21:36.807Z,68.12
2022-12-03T12:24:40.708Z,68.15
2022-12-03T12:27:09.977Z,68.25
2022-12-03T12:29:39.621Z,68.35
2022-12-03T12:32:08.497Z,68.27
2022-12-03T12:34:36.830Z,68.09
2022-12-03T12:37:05.933Z,68.06
2022-12-03T12:39:32.097Z,68.05
2022-12-03T12:41:58.944Z,67.93
2022-12-03T12:44:26.051Z,67.96
2022-12-03T12:46:54.301Z,67.76
2022-12-03T12:49:26.156Z,67.80
2022-12-03T12:51:52.231Z,67.72
2022-12-03T12:54:18.853Z,67.60
2022-12-03T12:56:49.397Z,67.80
2022-12-03T12:59:20.571Z,67.78
2022-12-03T13:01:49.681Z,67.77
2022-12-03T13:04:19.119Z,67.99
2022-12-03T13:06:47.243Z,67.95
2022-12-03T13:09:24.790Z,67.78
2022-12-03T13:11:57.510Z,67.90
2022-12-03T13:14:29.280Z,67.89
2022-12-03T13:16:58.449Z,68.02
2022-12-03T13:19:27.115Z,67.95
2022-12-03T13:21:55.622Z,67.79
2022-12-03T13:24:43.781Z,67.70
2022-12-03T13:27:19.201Z,67.81
2022-12-03T13:29:53.054Z,67.85
2022-12-03T13:32:23.414Z,67.95
2022-12-03T13:34:50.038Z,67.92
2022-12-03T13:37:21.823Z,68.09
2022-12-03T13:39:51.024Z,68.32
2022-12-03T13:42:41.016Z,68.49
2022-12-03T13:45:15.806Z,68.38
2022-12-03T13:47:45.326Z,68.35
2022-12-03T13:50:29.083Z,68.22
2022-12-03T13:52:56.324Z,68.42
2022-12-03T13:55:27.113Z,68.51
2022-12-03T13:57:54.301Z,68.58
2022-12-03T14:00:20.515Z,68.55
2022-12-03T14:02:46.663Z,68.66
2022-12-03T14:05:13.216Z,68.56
2022-12-03T14:07:39.797Z,68.61
2022-12-03T14:10:07.107Z,68.86
2022-12-03T14:12:33.805Z,68.82
2022-12-03T14:15:01.800Z,68.92
2022-12-03T14:17:29.871Z,68.90
2022-12-03T14:19:57.036Z,68.80
2022-12-03T14:22:24.704Z,68.86
2022-12-03T14:24:52.294Z,68.76
2022-12-03T14:27:19.565Z,68.80
2022-12-03T14:29:46.018Z,69.12
2022-12-03T14:32:12.090Z,68.87
2022-12-03T14:34:38.169Z,69.13
2022-12-03T14:37:04.119Z,69.23
2022-12-03T14:39:30.438Z,69.00
2022-12-03T14:42:14.374Z,69.41
2022-12-03T14:44:47.462Z,69.60
2022-12-03T14:47:15.722Z,69.50
2022-12-03T14:49:41.965Z,69.75
2022-12-03T14:52:11.901Z,69.76
2022-12-03T14:54:39.989Z,69.71
2022-12-03T14:57:05.973Z,69.79
2022-12-03T14:59:32.012Z,69.80
2022-12-03T15:01:58.212Z,69.93
2022-12-03T15:04:24.453Z,69.80
2022-12-03T15:06:50.569Z,69.76
2022-12-03T15:09:16.569Z,70.13
2022-12-03T15:11:46.080Z,70.28
2022-12-03T15:14:12.546Z,70.22
2022-12-03T15:16:39.309Z,70.38
2022-12-03T15:19:05.288Z,70.32
2022-12-03T15:21:34.244Z,70.39
2022-12-03T15:24:01.527Z,70.55
2022-12-03T15:26:27.619Z,70.64
2022-12-03T15:28:53.581Z,70.69
2022-12-03T15:31:19.758Z,70.74
2022-12-03T15:33:45.821Z,70.72
2022-12-03T15:36:11.967Z,70.60
2022-12-03T15:38:37.987Z,70.75
2022-12-03T15:41:20.598Z,71.09
2022-12-03T15:43:52.909Z,71.14
2022-12-03T15:46:19.657Z,71.31
2022-12-03T15:48:46.691Z,71.01
2022-12-03T15:51:12.843Z,71.04
2022-12-03T15:53:39.669Z,71.23
2022-12-03T15:56:06.590Z,71.35
2022-12-03T15:58:32.564Z,71.25
2022-12-03T16:00:59.093Z,71.26
2022-12-03T16:03:25.116Z,71.35
2022-12-03T16:05:53.090Z,71.33
2022-12-03T16:08:19.174Z,71.25
2022-12-03T16:10:45.236Z,71.28
2022-12-03T16:13:11.369Z,71.22
2022-12-03T16:15:37.872Z,71.35
2022-12-03T16:18:04.101Z,71.30
2022-12-03T16:20:30.198Z,71.22
2022-12-03T16:22:56.153Z,71.34
2022-12-03T16:25:22.257Z,71.41
2022-12-03T16:27:48.582Z,71.48
2022-12-03T16:30:15.308Z,71.55
2022-12-03T16:32:41.694Z,71.59
2022-12-03T16:35:08.482Z,71.41
2022-12-03T16:37:34.801Z,71.28
2022-12-03T16:40:00.974Z,71.43
2022-12-03T16:42:27.123Z,71.47
2022-12-03T16:45:04.383Z,71.75
2022-12-03T16:47:34.147Z,71.76
2022-12-03T16:50:02.913Z,71.29
2022-12-03T16:52:29.043Z,71.69
2022-12-03T16:54:55.131Z,71.98
2022-12-03T16:57:21.503Z,72.00
2022-12-03T16:59:47.575Z,71.91
2022-12-03T17:02:13.803Z,72.06
2022-12-03T17:04:40.080Z,72.06
2022-12-03T17:07:06.127Z,72.13
2022-12-03T17:09:32.163Z,72.15
2022-12-03T17:11:58.847Z,72.01
2022-12-03T17:14:28.580Z,72.26
2022-12-03T17:16:59.112Z,72.10
2022-12-03T17:19:25.501Z,72.15
2022-12-03T17:21:53.612Z,72.36
2022-12-03T17:24:19.714Z,72.31
2022-12-03T17:26:45.910Z,72.47
2022-12-03T17:29:12.019Z,72.31
2022-12-03T17:31:41.956Z,72.31
2022-12-03T17:34:09.333Z,72.12
2022-12-03T17:36:35.425Z,72.19
2022-12-03T17:39:01.449Z,72.34
2022-12-03T17:41:27.633Z,72.42
2022-12-03T17:43:53.812Z,72.46
2022-12-03T17:46:20.035Z,72.46
2022-12-03T17:48:46.397Z,72.48
2022-12-03T17:51:12.497Z,72.42
2022-12-03T17:53:38.546Z,72.37
2022-12-03T17:56:05.197Z,72.39
2022-12-03T17:58:31.323Z,72.63
2022-12-03T18:01:02.412Z,72.63
2022-12-03T18:03:29.532Z,72.42
2022-12-03T18:05:55.636Z,72.38
2022-12-03T18:08:22.491Z,72.42
2022-12-03T18:10:48.714Z,72.28
2022-12-03T18:13:15.097Z,72.35
2022-12-03T18:15:41.253Z,72.56
2022-12-03T18:18:07.417Z,72.69
2022-12-03T18:20:33.829Z,72.63
2022-12-03T18:23:00.112Z,72.63
2022-12-03T18:25:26.926Z,72.75
2022-12-03T18:27:53.088Z,72.61
2022-12-03T18:30:19.207Z,72.71
2022-12-03T18:32:45.419Z,72.82
2022-12-03T18:35:11.503Z,72.99
2022-12-03T18:37:37.598Z,72.92
2022-12-03T18:40:12.454Z,72.94
2022-12-03T18:42:39.467Z,72.85
2022-12-03T18:45:06.451Z,72.98
2022-12-03T18:47:32.498Z,73.31
2022-12-03T18:49:58.890Z,73.31
2022-12-03T18:52:25.330Z,72.99
2022-12-03T18:54:52.275Z,73.27
2022-12-03T18:57:18.366Z,73.25
2022-12-03T18:59:44.589Z,73.21
2022-12-03T19:02:32.489Z,73.30
2022-12-03T19:05:03.748Z,73.38
2022-12-03T19:07:29.833Z,73.18
2022-12-03T19:09:56.004Z,73.13
2022-12-03T19:12:22.195Z,73.36
2022-12-03T19:14:49.702Z,73.37
2022-12-03T19:17:15.779Z,73.54
2022-12-03T19:19:41.759Z,73.22
2022-12-03T19:22:07.720Z,73.25
2022-12-03T19:24:34.671Z,73.48
2022-12-03T19:27:00.812Z,73.49
2022-12-03T19:29:26.827Z,73.62
2022-12-03T19:31:52.921Z,73.25
2022-12-03T19:34:19.693Z,73.33
2022-12-03T19:36:46.832Z,73.54
2022-12-03T19:39:13.101Z,73.43
2022-12-03T19:41:40.591Z,73.39
2022-12-03T19:44:10.912Z,73.33
2022-12-03T19:46:37.151Z,73.20
2022-12-03T19:49:04.239Z,73.16
2022-12-03T19:51:35.780Z,73.26
2022-12-03T19:54:04.477Z,73.33
2022-12-03T19:56:30.796Z,73.16
2022-12-03T19:58:57.503Z,73.19
2022-12-03T20:01:26.502Z,73.13
2022-12-03T20:03:54.788Z,73.11
2022-12-03T20:06:23.585Z,73.14
2022-12-03T20:08:50.239Z,73.18
2022-12-03T20:11:21.955Z,73.12
2022-12-03T20:13:52.588Z,73.06
2022-12-03T20:16:18.989Z,72.96
2022-12-03T20:18:47.371Z,73.45
2022-12-03T20:21:15.577Z,73.83
2022-12-03T20:23:42.135Z,73.76
2022-12-03T20:26:14.731Z,73.79
2022-12-03T20:28:41.513Z,73.73
2022-12-03T20:31:12.621Z,73.67
2022-12-03T20:33:41.197Z,73.95
2022-12-03T20:36:08.752Z,73.81
2022-12-03T20:38:36.093Z,73.77
2022-12-03T20:41:04.877Z,73.83
2022-12-03T20:43:31.017Z,73.81
2022-12-03T20:46:02.567Z,73.56
2022-12-03T20:48:29.223Z,73.47
2022-12-03T20:50:55.274Z,73.58
2022-12-03T20:53:25.597Z,73.58
2022-12-03T20:55:59.847Z,73.61
2022-12-03T20:58:26.512Z,73.97
2022-12-03T21:00:52.814Z,73.69
2022-12-03T21:03:20.036Z,73.40
2022-12-03T21:05:47.023Z,73.50
2022-12-03T21:08:13.427Z,73.57
2022-12-03T21:10:46.665Z,73.48
2022-12-03T21:13:17.165Z,73.36
2022-12-03T21:15:44.479Z,73.78
2022-12-03T21:18:14.326Z,74.03
2022-12-03T21:20:42.436Z,74.34
2022-12-03T21:23:08.922Z,74.35
2022-12-03T21:25:36.082Z,74.21
2022-12-03T21:28:04.882Z,74.20
2022-12-03T21:30:31.557Z,74.42
2022-12-03T21:32:58.154Z,74.53
2022-12-03T21:35:24.574Z,74.53
2022-12-03T21:37:51.150Z,74.48
2022-12-03T21:41:31.825Z,74.66
2022-12-03T21:44:00.545Z,74.56
2022-12-03T21:47:12.205Z,74.76
2022-12-03T21:49:13.936Z,74.81
2022-12-03T21:56:15.516Z,75.40
2022-12-03T21:58:43.074Z,75.35
2022-12-03T22:01:20.660Z,75.14
2022-12-03T22:04:39.494Z,74.84
2022-12-03T22:07:05.723Z,75.19
2022-12-03T22:09:32.478Z,75.13
2022-12-03T22:12:00.265Z,75.11
2022-12-03T22:14:27.353Z,75.09
2022-12-03T22:16:53.372Z,74.63
2022-12-03T22:19:22.637Z,74.63
2022-12-03T22:21:48.822Z,74.72
2022-12-03T22:24:14.894Z,74.92
2022-12-03T22:26:40.922Z,75.24
2022-12-03T22:29:06.908Z,74.92
2022-12-03T22:31:32.999Z,75.28
2022-12-03T22:33:59.018Z,75.54
2022-12-03T22:36:25.056Z,75.49
2022-12-03T22:38:51.062Z,75.65
2022-12-03T22:41:18.178Z,76.01
2022-12-03T22:43:44.942Z,75.95
2022-12-03T22:46:11.917Z,75.85
2022-12-03T22:48:39.130Z,76.06
2022-12-03T22:51:13.640Z,76.34
2022-12-03T22:53:40.136Z,76.33
2022-12-03T22:56:08.005Z,76.24
2022-12-03T22:58:34.022Z,76.18
2022-12-03T23:01:03.235Z,76.01
2022-12-03T23:03:30.169Z,76.13
2022-12-03T23:05:56.500Z,76.28
2022-12-03T23:08:22.660Z,76.02
2022-12-03T23:10:50.874Z,76.01
2022-12-03T23:13:18.338Z,76.24
2022-12-03T23:15:50.052Z,76.22
2022-12-03T23:18:17.153Z,76.09
2022-12-03T23:20:50.062Z,75.85
2022-12-03T23:23:17.322Z,76.08
2022-12-03T23:26:10.350Z,75.96
2022-12-03T23:28:38.209Z,76.10
2022-12-03T23:31:05.266Z,76.00
2022-12-03T23:33:36.694Z,76.02
2022-12-03T23:36:05.916Z,75.95
2022-12-03T23:38:32.066Z,75.93
2022-12-03T23:41:06.730Z,76.19
2022-12-03T23:43:32.968Z,76.09
2022-12-03T23:46:04.691Z,75.83
2022-12-03T23:48:30.848Z,75.69
2022-12-03T23:50:56.946Z,75.65
2022-12-03T23:53:48.216Z,75.67
2022-12-03T23:56:16.968Z,76.07
2022-12-03T23:58:43.323Z,76.23
